createdAt,value
2022-10-01T00:00:11.060Z,12.52
2022-10-01T00:01:17.156Z,12.51
2022-10-01T00:02:11.069Z,12.50
2022-10-01T00:03:11.107Z,12.49
2022-10-01T00:04:11.058Z,12.49
2022-10-01T00:05:11.065Z,12.49
2022-10-01T00:06:14.064Z,12.47
2022-10-01T00:07:13.061Z,12.47
2022-10-01T00:08:11.064Z,12.45
2022-10-01T00:09:11.064Z,12.45
2022-10-01T00:10:11.062Z,12.45
2022-10-01T00:11:15.067Z,12.45
2022-10-01T00:12:11.070Z,12.46
2022-10-01T00:13:11.062Z,12.45
2022-10-01T00:14:11.062Z,12.42
2022-10-01T00:15:13.728Z,12.42
2022-10-01T00:16:11.119Z,12.41
2022-10-01T00:17:11.062Z,12.39
2022-10-01T00:18:11.065Z,12.39
2022-10-01T00:19:13.063Z,12.38
2022-10-01T00:20:14.708Z,12.38
2022-10-01T00:21:21.060Z,12.37
2022-10-01T00:22:11.061Z,12.34
2022-10-01T00:23:14.060Z,12.35
2022-10-01T00:24:13.062Z,12.36
2022-10-01T00:25:11.058Z,12.32
2022-10-01T00:26:14.057Z,12.30
2022-10-01T00:27:11.058Z,12.27
2022-10-01T00:28:11.109Z,12.24
2022-10-01T00:29:13.062Z,12.26
2022-10-01T00:30:11.060Z,12.22
2022-10-01T00:31:11.089Z,12.23
2022-10-01T00:32:11.060Z,12.18
2022-10-01T00:33:11.056Z,12.20
2022-10-01T00:34:12.067Z,12.18
2022-10-01T00:35:13.064Z,12.20
2022-10-01T00:36:11.059Z,12.22
2022-10-01T00:37:11.062Z,12.20
2022-10-01T00:38:11.061Z,12.19
2022-10-01T00:39:11.060Z,12.20
2022-10-01T00:40:11.059Z,12.18
2022-10-01T00:41:11.060Z,12.20
2022-10-01T00:42:21.056Z,12.17
2022-10-01T00:43:19.060Z,12.19
2022-10-01T00:44:21.068Z,12.21
2022-10-01T00:45:12.068Z,12.20
2022-10-01T00:46:17.098Z,12.19
2022-10-01T00:47:20.067Z,12.19
2022-10-01T00:48:11.062Z,12.18
2022-10-01T00:49:17.070Z,12.17
2022-10-01T00:50:19.062Z,12.19
2022-10-01T00:51:11.060Z,12.18
2022-10-01T00:52:16.061Z,12.17
2022-10-01T00:53:11.069Z,12.18
2022-10-01T00:54:12.063Z,12.18
2022-10-01T00:55:17.058Z,12.17
2022-10-01T00:56:11.062Z,12.18
2022-10-01T00:57:11.069Z,12.17
2022-10-01T00:58:11.061Z,12.15
2022-10-01T00:59:11.064Z,12.16
2022-10-01T01:00:11.070Z,12.15
2022-10-01T01:01:11.085Z,12.15
2022-10-01T01:02:11.162Z,12.15
2022-10-01T01:03:11.070Z,12.15
2022-10-01T01:04:15.066Z,12.14
2022-10-01T01:05:11.060Z,12.13
2022-10-01T01:06:12.063Z,12.11
2022-10-01T01:07:11.070Z,12.09
2022-10-01T01:08:11.063Z,12.10
2022-10-01T01:09:11.065Z,12.11
2022-10-01T01:10:11.070Z,12.11
2022-10-01T01:11:18.060Z,12.12
2022-10-01T01:12:20.061Z,12.11
2022-10-01T01:13:19.064Z,12.10
2022-10-01T01:14:20.067Z,12.11
2022-10-01T01:15:19.072Z,12.10
2022-10-01T01:16:18.159Z,12.11
2022-10-01T01:17:20.063Z,12.09
2022-10-01T01:18:22.065Z,12.08
2022-10-01T01:19:18.071Z,12.08
2022-10-01T01:20:21.072Z,12.09
2022-10-01T01:21:19.061Z,12.09
2022-10-01T01:22:12.060Z,12.10
2022-10-01T01:23:19.079Z,12.11
2022-10-01T01:24:21.107Z,12.06
2022-10-01T01:25:20.083Z,12.07
2022-10-01T01:26:19.061Z,12.06
2022-10-01T01:27:19.057Z,12.09
2022-10-01T01:28:19.109Z,12.06
2022-10-01T01:29:19.060Z,12.05
2022-10-01T01:30:12.068Z,12.05
2022-10-01T01:31:13.118Z,12.03
2022-10-01T01:32:16.060Z,12.02
2022-10-01T01:33:16.067Z,12.01
2022-10-01T01:34:12.061Z,12.01
2022-10-01T01:35:15.060Z,12.02
2022-10-01T01:36:15.059Z,12.00
2022-10-01T01:37:13.060Z,11.99
2022-10-01T01:38:16.058Z,11.97
2022-10-01T01:39:13.063Z,11.97
2022-10-01T01:40:12.062Z,11.95
2022-10-01T01:41:11.061Z,11.94
2022-10-01T01:42:18.056Z,11.94
2022-10-01T01:43:14.069Z,11.94
2022-10-01T01:44:12.070Z,11.92
2022-10-01T01:45:16.058Z,11.93
2022-10-01T01:46:11.144Z,11.92
2022-10-01T01:47:11.068Z,11.93
2022-10-01T01:48:11.060Z,11.92
2022-10-01T01:49:11.081Z,11.91
2022-10-01T01:50:12.070Z,11.89
2022-10-01T01:51:19.063Z,11.90
2022-10-01T01:52:14.061Z,11.93
2022-10-01T01:53:11.063Z,11.94
2022-10-01T01:54:11.069Z,11.92
2022-10-01T01:55:12.063Z,11.93
2022-10-01T01:56:11.064Z,11.96
2022-10-01T01:57:11.070Z,11.92
2022-10-01T01:58:11.062Z,11.91
2022-10-01T01:59:11.063Z,11.93
2022-10-01T02:00:11.069Z,11.92
2022-10-01T02:01:19.090Z,11.92
2022-10-01T02:02:19.132Z,11.90
2022-10-01T02:03:11.068Z,11.92
2022-10-01T02:04:19.069Z,11.91
2022-10-01T02:05:17.064Z,11.89
2022-10-01T02:06:23.061Z,11.89
2022-10-01T02:07:19.060Z,11.87
2022-10-01T02:08:19.062Z,11.88
2022-10-01T02:09:19.072Z,11.89
2022-10-01T02:10:19.065Z,11.90
2022-10-01T02:11:19.064Z,11.90
2022-10-01T02:12:21.062Z,11.89
2022-10-01T02:13:19.071Z,11.88
2022-10-01T02:14:21.070Z,11.86
2022-10-01T02:15:18.078Z,11.86
2022-10-01T02:16:21.116Z,11.86
2022-10-01T02:17:21.070Z,11.85
2022-10-01T02:18:19.064Z,11.83
2022-10-01T02:19:19.060Z,11.81
2022-10-01T02:20:17.065Z,11.82
2022-10-01T02:21:16.065Z,11.83
2022-10-01T02:22:17.058Z,11.82
2022-10-01T02:23:16.057Z,11.81
2022-10-01T02:24:21.060Z,11.80
2022-10-01T02:25:11.059Z,11.79
2022-10-01T02:26:14.060Z,11.77
2022-10-01T02:27:17.059Z,11.78
2022-10-01T02:28:12.120Z,11.79
2022-10-01T02:29:12.067Z,11.79
2022-10-01T02:30:12.059Z,11.77
2022-10-01T02:31:11.120Z,11.78
2022-10-01T02:32:11.060Z,11.79
2022-10-01T02:33:13.061Z,11.80
2022-10-01T02:34:12.667Z,11.77
2022-10-01T02:35:13.059Z,11.78
2022-10-01T02:36:11.061Z,11.78
2022-10-01T02:37:12.057Z,11.74
2022-10-01T02:38:11.061Z,11.77
2022-10-01T02:39:11.071Z,11.72
2022-10-01T02:40:12.058Z,11.71
2022-10-01T02:41:13.066Z,11.73
2022-10-01T02:42:14.068Z,11.73
2022-10-01T02:43:19.062Z,11.72
2022-10-01T02:44:14.059Z,11.74
2022-10-01T02:45:11.062Z,11.74
2022-10-01T02:46:17.156Z,11.72
2022-10-01T02:47:19.062Z,11.71
2022-10-01T02:48:11.060Z,11.71
2022-10-01T02:49:11.062Z,11.69
2022-10-01T02:50:11.070Z,11.71
2022-10-01T02:51:21.070Z,11.73
2022-10-01T02:52:19.061Z,11.69
2022-10-01T02:53:16.063Z,11.71
2022-10-01T02:54:17.070Z,11.70
2022-10-01T02:55:18.065Z,11.71
2022-10-01T02:56:11.062Z,11.70
2022-10-01T02:57:17.063Z,11.70
2022-10-01T02:58:11.064Z,11.71
2022-10-01T02:59:11.064Z,11.70
2022-10-01T03:00:13.068Z,11.70
2022-10-01T03:01:11.154Z,11.68
2022-10-01T03:02:11.215Z,11.69
2022-10-01T03:03:11.062Z,11.66
2022-10-01T03:04:11.064Z,11.66
2022-10-01T03:05:11.064Z,11.65
2022-10-01T03:06:11.062Z,11.65
2022-10-01T03:07:11.063Z,11.65
2022-10-01T03:08:11.071Z,11.65
2022-10-01T03:09:12.061Z,11.64
2022-10-01T03:10:11.063Z,11.64
2022-10-01T03:11:12.141Z,11.63
2022-10-01T03:12:11.069Z,11.65
2022-10-01T03:13:11.060Z,11.65
2022-10-01T03:14:11.078Z,11.65
2022-10-01T03:15:11.065Z,11.62
2022-10-01T03:16:11.132Z,11.61
2022-10-01T03:17:11.066Z,11.61
2022-10-01T03:18:11.065Z,11.62
2022-10-01T03:19:11.063Z,11.64
2022-10-01T03:20:11.067Z,11.63
2022-10-01T03:21:11.060Z,11.61
2022-10-01T03:22:12.058Z,11.58
2022-10-01T03:23:11.058Z,11.59
2022-10-01T03:24:11.063Z,11.59
2022-10-01T03:25:11.059Z,11.59
2022-10-01T03:26:11.059Z,11.55
2022-10-01T03:27:11.065Z,11.57
2022-10-01T03:28:11.112Z,11.56
2022-10-01T03:29:11.060Z,11.55
2022-10-01T03:30:11.067Z,11.55
2022-10-01T03:31:11.134Z,11.56
2022-10-01T03:32:11.062Z,11.53
2022-10-01T03:33:11.067Z,11.52
2022-10-01T03:34:11.062Z,11.54
2022-10-01T03:35:11.063Z,11.56
2022-10-01T03:36:11.067Z,11.55
2022-10-01T03:37:11.064Z,11.55
2022-10-01T03:38:11.056Z,11.52
2022-10-01T03:39:11.062Z,11.54
2022-10-01T03:40:11.061Z,11.57
2022-10-01T03:41:11.062Z,11.57
2022-10-01T03:42:11.059Z,11.53
2022-10-01T03:43:11.060Z,11.53
2022-10-01T03:44:11.061Z,11.53
2022-10-01T03:45:11.061Z,11.52
2022-10-01T03:46:11.119Z,11.52
2022-10-01T03:47:11.062Z,11.55
2022-10-01T03:48:11.064Z,11.56
2022-10-01T03:49:11.065Z,11.55
2022-10-01T03:50:11.060Z,11.53
2022-10-01T03:51:11.060Z,11.54
2022-10-01T03:52:11.062Z,11.55
2022-10-01T03:53:11.059Z,11.54
2022-10-01T03:54:11.062Z,11.54
2022-10-01T03:55:11.084Z,11.53
2022-10-01T03:56:11.060Z,11.55
2022-10-01T03:57:11.064Z,11.55
2022-10-01T03:58:11.069Z,11.53
2022-10-01T03:59:13.066Z,11.53
2022-10-01T04:00:11.070Z,11.52
2022-10-01T04:01:11.062Z,11.52
2022-10-01T04:02:11.229Z,11.51
2022-10-01T04:03:11.152Z,11.51
2022-10-01T04:04:11.064Z,11.50
2022-10-01T04:05:11.070Z,11.49
2022-10-01T04:06:11.063Z,11.46
2022-10-01T04:07:11.059Z,11.46
2022-10-01T04:08:11.065Z,11.47
2022-10-01T04:09:11.066Z,11.46
2022-10-01T04:10:11.059Z,11.47
2022-10-01T04:11:11.064Z,11.45
2022-10-01T04:12:11.063Z,11.42
2022-10-01T04:13:11.060Z,11.40
2022-10-01T04:14:11.065Z,11.40
2022-10-01T04:15:11.073Z,11.41
2022-10-01T04:16:11.290Z,11.39
2022-10-01T04:17:11.065Z,11.42
2022-10-01T04:18:11.071Z,11.42
2022-10-01T04:19:11.066Z,11.41
2022-10-01T04:20:11.061Z,11.42
2022-10-01T04:21:11.120Z,11.40
2022-10-01T04:22:11.058Z,11.39
2022-10-01T04:23:11.056Z,11.40
2022-10-01T04:24:11.057Z,11.39
2022-10-01T04:25:13.064Z,11.36
2022-10-01T04:26:11.066Z,11.36
2022-10-01T04:27:11.054Z,11.35
2022-10-01T04:28:12.129Z,11.35
2022-10-01T04:29:11.061Z,11.30
2022-10-01T04:30:11.054Z,11.30
2022-10-01T04:31:15.118Z,11.22
2022-10-01T04:32:11.060Z,11.20
2022-10-01T04:33:12.057Z,11.22
2022-10-01T04:34:11.058Z,11.22
2022-10-01T04:35:12.069Z,11.20
2022-10-01T04:36:11.063Z,11.20
2022-10-01T04:37:11.056Z,11.20
2022-10-01T04:38:13.067Z,11.21
2022-10-01T04:39:11.060Z,11.21
2022-10-01T04:40:11.056Z,11.21
2022-10-01T04:41:11.062Z,11.18
2022-10-01T04:42:11.063Z,11.18
2022-10-01T04:43:11.060Z,11.17
2022-10-01T04:44:11.060Z,11.17
2022-10-01T04:45:11.062Z,11.17
2022-10-01T04:46:11.059Z,11.17
2022-10-01T04:47:11.059Z,11.13
2022-10-01T04:48:11.067Z,11.14
2022-10-01T04:49:11.060Z,11.12
2022-10-01T04:50:11.063Z,11.11
2022-10-01T04:51:11.069Z,11.13
2022-10-01T04:52:11.063Z,11.08
2022-10-01T04:53:11.056Z,11.07
2022-10-01T04:54:11.060Z,11.07
2022-10-01T04:55:11.063Z,11.08
2022-10-01T04:56:11.060Z,11.06
2022-10-01T04:57:11.060Z,11.03
2022-10-01T04:58:11.069Z,11.01
2022-10-01T04:59:11.060Z,10.99
2022-10-01T05:00:11.063Z,11.01
2022-10-01T05:01:11.109Z,11.02
2022-10-01T05:02:11.173Z,11.02
2022-10-01T05:03:11.060Z,10.99
2022-10-01T05:04:11.066Z,11.00
2022-10-01T05:05:11.062Z,10.97
2022-10-01T05:06:11.059Z,10.96
2022-10-01T05:07:11.062Z,10.96
2022-10-01T05:08:11.075Z,10.94
2022-10-01T05:09:11.060Z,10.93
2022-10-01T05:10:15.063Z,10.93
2022-10-01T05:11:11.069Z,10.90
2022-10-01T05:12:11.064Z,10.92
2022-10-01T05:13:11.060Z,10.89
2022-10-01T05:14:11.067Z,10.91
2022-10-01T05:15:11.067Z,10.92
2022-10-01T05:16:11.116Z,10.90
2022-10-01T05:17:11.063Z,10.88
2022-10-01T05:18:11.066Z,10.88
2022-10-01T05:19:11.062Z,10.87
2022-10-01T05:20:14.062Z,10.86
2022-10-01T05:21:11.065Z,10.86
2022-10-01T05:22:11.057Z,10.85
2022-10-01T05:23:11.060Z,10.84
2022-10-01T05:24:11.066Z,10.83
2022-10-01T05:25:11.059Z,10.81
2022-10-01T05:26:11.055Z,10.78
2022-10-01T05:27:11.062Z,10.77
2022-10-01T05:28:11.095Z,10.76
2022-10-01T05:29:11.055Z,10.73
2022-10-01T05:30:11.063Z,10.73
2022-10-01T05:31:11.074Z,10.71
2022-10-01T05:32:11.058Z,10.72
2022-10-01T05:33:11.059Z,10.70
2022-10-01T05:34:11.068Z,10.70
2022-10-01T05:35:11.059Z,10.70
2022-10-01T05:36:11.061Z,10.69
2022-10-01T05:37:11.067Z,10.72
2022-10-01T05:38:11.060Z,10.68
2022-10-01T05:39:11.059Z,10.70
2022-10-01T05:40:11.059Z,10.70
2022-10-01T05:41:11.062Z,10.66
2022-10-01T05:42:11.058Z,10.66
2022-10-01T05:43:11.061Z,10.69
2022-10-01T05:44:11.061Z,10.72
2022-10-01T05:45:11.060Z,10.70
2022-10-01T05:46:11.095Z,10.70
2022-10-01T05:47:11.061Z,10.71
2022-10-01T05:48:11.059Z,10.71
2022-10-01T05:49:11.063Z,10.71
2022-10-01T05:50:11.070Z,10.71
2022-10-01T05:51:11.059Z,10.72
2022-10-01T05:52:11.065Z,10.70
2022-10-01T05:53:11.071Z,10.69
2022-10-01T05:54:11.063Z,10.70
2022-10-01T05:55:11.063Z,10.70
2022-10-01T05:56:11.060Z,10.70
2022-10-01T05:57:11.064Z,10.72
2022-10-01T05:58:11.060Z,10.72
2022-10-01T05:59:11.062Z,10.73
2022-10-01T06:00:11.068Z,10.74
2022-10-01T06:01:11.064Z,10.75
2022-10-01T06:02:11.138Z,10.75
2022-10-01T06:03:11.203Z,10.77
2022-10-01T06:04:11.063Z,10.78
2022-10-01T06:05:11.066Z,10.75
2022-10-01T06:06:11.062Z,10.76
2022-10-01T06:07:11.062Z,10.76
2022-10-01T06:08:11.059Z,10.74
2022-10-01T06:09:11.064Z,10.75
2022-10-01T06:10:11.066Z,10.73
2022-10-01T06:11:11.062Z,10.73
2022-10-01T06:12:18.989Z,10.73
2022-10-01T06:13:13.828Z,10.75
2022-10-01T06:14:11.061Z,10.78
2022-10-01T06:15:11.064Z,10.79
2022-10-01T06:16:11.071Z,10.79
2022-10-01T06:17:11.065Z,10.78
2022-10-01T06:18:11.062Z,10.79
2022-10-01T06:19:11.066Z,10.75
2022-10-01T06:20:13.066Z,10.75
2022-10-01T06:21:11.057Z,10.75
2022-10-01T06:22:11.056Z,10.77
2022-10-01T06:23:13.058Z,10.77
2022-10-01T06:24:11.055Z,10.78
2022-10-01T06:25:11.061Z,10.77
2022-10-01T06:26:11.065Z,10.79
2022-10-01T06:27:11.057Z,10.79
2022-10-01T06:28:11.136Z,10.79
2022-10-01T06:29:11.065Z,10.80
2022-10-01T06:30:11.058Z,10.79
2022-10-01T06:31:11.056Z,10.80
2022-10-01T06:32:11.133Z,10.81
2022-10-01T06:33:14.059Z,10.75
2022-10-01T06:34:11.058Z,10.74
2022-10-01T06:35:11.058Z,10.76
2022-10-01T06:36:11.060Z,10.76
2022-10-01T06:37:11.059Z,10.76
2022-10-01T06:38:11.062Z,10.74
2022-10-01T06:39:11.060Z,10.71
2022-10-01T06:40:11.056Z,10.71
2022-10-01T06:41:11.062Z,10.70
2022-10-01T06:42:11.066Z,10.70
2022-10-01T06:43:12.061Z,10.71
2022-10-01T06:44:11.065Z,10.72
2022-10-01T06:45:11.065Z,10.71
2022-10-01T06:46:11.183Z,10.72
2022-10-01T06:47:11.060Z,10.71
2022-10-01T06:48:12.059Z,10.71
2022-10-01T06:49:11.067Z,10.71
2022-10-01T06:50:11.058Z,10.71
2022-10-01T06:51:11.060Z,10.72
2022-10-01T06:52:15.069Z,10.74
2022-10-01T06:53:11.060Z,10.76
2022-10-01T06:54:11.059Z,10.77
2022-10-01T06:55:15.710Z,10.79
2022-10-01T06:56:13.081Z,10.80
2022-10-01T06:57:11.059Z,10.78
2022-10-01T06:58:17.063Z,10.80
2022-10-01T06:59:11.069Z,10.82
2022-10-01T07:00:11.062Z,10.83
2022-10-01T07:01:11.186Z,10.84
2022-10-01T07:02:16.121Z,10.85
2022-10-01T07:03:17.070Z,10.87
2022-10-01T07:04:11.064Z,10.87
2022-10-01T07:05:11.061Z,10.89
2022-10-01T07:06:12.064Z,10.89
2022-10-01T07:07:11.061Z,10.92
2022-10-01T07:08:11.059Z,10.95
2022-10-01T07:09:11.063Z,10.96
2022-10-01T07:10:13.067Z,10.99
2022-10-01T07:11:11.060Z,11.01
2022-10-01T07:12:11.063Z,11.05
2022-10-01T07:13:14.089Z,11.08
2022-10-01T07:14:11.064Z,11.13
2022-10-01T07:15:11.060Z,11.13
2022-10-01T07:16:11.096Z,11.17
2022-10-01T07:17:11.065Z,11.20
2022-10-01T07:18:11.060Z,11.25
2022-10-01T07:19:11.062Z,11.26
2022-10-01T07:20:11.067Z,11.33
2022-10-01T07:21:11.056Z,11.32
2022-10-01T07:22:11.058Z,11.37
2022-10-01T07:23:12.070Z,11.42
2022-10-01T07:24:11.056Z,11.46
2022-10-01T07:25:11.059Z,11.50
2022-10-01T07:26:11.065Z,11.57
2022-10-01T07:27:11.059Z,11.61
2022-10-01T07:28:15.087Z,11.63
2022-10-01T07:29:11.064Z,11.69
2022-10-01T07:30:11.058Z,11.73
2022-10-01T07:31:15.091Z,11.76
2022-10-01T07:32:12.058Z,11.80
2022-10-01T07:33:11.088Z,11.87
2022-10-01T07:34:11.059Z,11.93
2022-10-01T07:35:11.055Z,11.95
2022-10-01T07:36:11.065Z,12.01
2022-10-01T07:37:11.061Z,12.05
2022-10-01T07:38:12.056Z,12.10
2022-10-01T07:39:11.058Z,12.16
2022-10-01T07:40:11.061Z,12.22
2022-10-01T07:41:11.058Z,12.27
2022-10-01T07:42:11.067Z,12.33
2022-10-01T07:43:11.060Z,12.37
2022-10-01T07:44:11.059Z,12.43
2022-10-01T07:45:11.061Z,12.44
2022-10-01T07:46:11.103Z,12.48
2022-10-01T07:47:11.059Z,12.53
2022-10-01T07:48:11.061Z,12.59
2022-10-01T07:49:11.062Z,12.64
2022-10-01T07:50:11.065Z,12.69
2022-10-01T07:51:11.063Z,12.74
2022-10-01T07:52:13.281Z,12.78
2022-10-01T07:53:11.061Z,12.82
2022-10-01T07:54:11.064Z,12.82
2022-10-01T07:55:11.072Z,12.84
2022-10-01T07:56:11.060Z,12.88
2022-10-01T07:57:11.064Z,12.89
2022-10-01T07:58:11.068Z,12.97
2022-10-01T07:59:11.062Z,12.98
2022-10-01T08:00:11.063Z,13.02
2022-10-01T08:01:11.153Z,13.08
2022-10-01T08:02:16.181Z,13.12
2022-10-01T08:03:11.063Z,13.16
2022-10-01T08:04:15.060Z,13.24
2022-10-01T08:05:15.078Z,13.29
2022-10-01T08:06:12.065Z,13.31
2022-10-01T08:07:11.061Z,13.40
2022-10-01T08:08:11.069Z,13.38
2022-10-01T08:09:11.062Z,13.46
2022-10-01T08:10:11.062Z,13.54
2022-10-01T08:11:11.072Z,13.58
2022-10-01T08:12:11.070Z,13.62
2022-10-01T08:13:14.062Z,13.68
2022-10-01T08:14:11.070Z,13.71
2022-10-01T08:15:12.073Z,13.78
2022-10-01T08:16:11.102Z,13.83
2022-10-01T08:17:11.059Z,13.82
2022-10-01T08:18:11.062Z,13.92
2022-10-01T08:19:11.065Z,13.98
2022-10-01T08:20:12.064Z,13.95
2022-10-01T08:21:11.058Z,13.99
2022-10-01T08:22:11.058Z,14.00
2022-10-01T08:23:11.056Z,14.07
2022-10-01T08:24:11.059Z,14.12
2022-10-01T08:25:11.067Z,14.17
2022-10-01T08:26:11.058Z,14.20
2022-10-01T08:27:11.059Z,14.25
2022-10-01T08:28:11.163Z,14.30
2022-10-01T08:29:14.801Z,14.33
2022-10-01T08:30:13.832Z,14.34
2022-10-01T08:31:11.068Z,14.42
2022-10-01T08:32:11.126Z,14.52
2022-10-01T08:33:12.061Z,14.61
2022-10-01T08:34:11.058Z,14.70
2022-10-01T08:35:11.060Z,14.78
2022-10-01T08:36:12.068Z,14.82
2022-10-01T08:37:11.059Z,14.87
2022-10-01T08:38:11.062Z,14.85
2022-10-01T08:39:11.059Z,14.80
2022-10-01T08:40:11.064Z,14.86
2022-10-01T08:41:23.041Z,14.90
2022-10-01T08:42:19.058Z,15.01
2022-10-01T08:43:20.057Z,15.07
2022-10-01T08:44:18.068Z,15.10
2022-10-01T08:45:20.073Z,15.10
2022-10-01T08:46:16.130Z,15.12
2022-10-01T08:47:18.059Z,15.15
2022-10-01T08:48:19.064Z,15.20
2022-10-01T08:49:23.065Z,15.23
2022-10-01T08:50:18.069Z,15.23
2022-10-01T08:51:17.062Z,15.27
2022-10-01T08:52:21.077Z,15.29
2022-10-01T08:53:16.057Z,15.29
2022-10-01T08:54:19.062Z,15.33
2022-10-01T08:55:17.072Z,15.35
2022-10-01T08:56:19.064Z,15.48
2022-10-01T08:57:17.062Z,15.58
2022-10-01T08:58:15.062Z,15.59
2022-10-01T08:59:27.236Z,15.58
2022-10-01T09:00:15.064Z,15.63
2022-10-01T09:01:11.118Z,15.61
2022-10-01T09:02:19.066Z,15.67
2022-10-01T09:03:13.081Z,15.70
2022-10-01T09:04:11.155Z,15.79
2022-10-01T09:05:23.074Z,15.84
2022-10-01T09:06:19.068Z,15.82
2022-10-01T09:07:19.072Z,15.87
2022-10-01T09:08:21.098Z,15.95
2022-10-01T09:09:19.066Z,16.02
2022-10-01T09:10:19.149Z,16.00
2022-10-01T09:11:19.064Z,16.08
2022-10-01T09:12:19.065Z,16.13
2022-10-01T09:13:19.066Z,16.17
2022-10-01T09:14:19.067Z,16.19
2022-10-01T09:15:19.065Z,16.27
2022-10-01T09:16:21.126Z,16.21
2022-10-01T09:17:19.072Z,16.34
2022-10-01T09:18:19.069Z,16.42
2022-10-01T09:19:19.063Z,16.45
2022-10-01T09:20:21.065Z,16.48
2022-10-01T09:21:18.072Z,16.38
2022-10-01T09:22:19.061Z,16.41
2022-10-01T09:23:23.101Z,16.35
2022-10-01T09:24:15.067Z,16.37
2022-10-01T09:25:18.066Z,16.43
2022-10-01T09:26:12.057Z,16.41
2022-10-01T09:27:19.060Z,16.45
2022-10-01T09:28:19.109Z,16.51
2022-10-01T09:29:15.057Z,16.49
2022-10-01T09:30:19.061Z,16.31
2022-10-01T09:31:19.120Z,16.45
2022-10-01T09:32:16.060Z,16.44
2022-10-01T09:33:16.057Z,16.35
2022-10-01T09:34:14.056Z,16.42
2022-10-01T09:35:22.067Z,16.44
2022-10-01T09:36:21.068Z,16.45
2022-10-01T09:37:19.059Z,16.50
2022-10-01T09:38:19.057Z,16.57
2022-10-01T09:39:21.061Z,16.62
2022-10-01T09:40:21.076Z,16.72
2022-10-01T09:41:11.062Z,16.66
2022-10-01T09:42:11.069Z,16.75
2022-10-01T09:43:13.058Z,16.85
2022-10-01T09:44:19.184Z,16.92
2022-10-01T09:45:13.061Z,17.10
2022-10-01T09:46:16.080Z,17.19
2022-10-01T09:47:18.059Z,17.04
2022-10-01T09:48:19.063Z,16.99
2022-10-01T09:49:17.063Z,16.98
2022-10-01T09:50:15.071Z,17.00
2022-10-01T09:51:17.059Z,16.90
2022-10-01T09:52:20.058Z,17.00
2022-10-01T09:53:16.064Z,17.09
2022-10-01T09:54:19.072Z,17.18
2022-10-01T09:55:19.064Z,17.26
2022-10-01T09:56:19.060Z,17.36
2022-10-01T09:57:18.058Z,17.34
2022-10-01T09:58:19.063Z,17.44
2022-10-01T09:59:21.071Z,17.45
2022-10-01T10:00:18.063Z,17.48
2022-10-01T10:01:20.062Z,17.42
2022-10-01T10:02:21.129Z,17.58
2022-10-01T10:03:11.211Z,17.44
2022-10-01T10:04:11.071Z,17.46
2022-10-01T10:05:21.065Z,17.35
2022-10-01T10:06:11.062Z,17.32
2022-10-01T10:07:15.067Z,17.44
2022-10-01T10:08:15.069Z,17.54
2022-10-01T10:09:18.064Z,17.42
2022-10-01T10:10:20.999Z,17.50
2022-10-01T10:11:13.105Z,17.64
2022-10-01T10:12:22.075Z,17.68
2022-10-01T10:13:22.067Z,17.69
2022-10-01T10:14:19.066Z,17.69
2022-10-01T10:15:14.064Z,17.76
2022-10-01T10:16:15.102Z,17.83
2022-10-01T10:17:14.073Z,17.67
2022-10-01T10:18:13.066Z,17.72
2022-10-01T10:19:22.070Z,17.84
2022-10-01T10:20:16.065Z,17.82
2022-10-01T10:21:16.066Z,17.92
2022-10-01T10:22:18.059Z,17.87
2022-10-01T10:23:15.060Z,17.89
2022-10-01T10:24:19.058Z,17.95
2022-10-01T10:25:16.061Z,17.89
2022-10-01T10:26:19.063Z,17.96
2022-10-01T10:27:19.059Z,17.95
2022-10-01T10:28:19.159Z,17.94
2022-10-01T10:29:19.057Z,17.99
2022-10-01T10:30:15.119Z,18.09
2022-10-01T10:31:15.093Z,18.29
2022-10-01T10:32:19.059Z,18.16
2022-10-01T10:33:15.057Z,18.32
2022-10-01T10:34:19.063Z,18.42
2022-10-01T10:35:14.139Z,18.47
2022-10-01T10:36:15.061Z,18.41
2022-10-01T10:37:15.059Z,18.37
2022-10-01T10:38:17.087Z,18.40
2022-10-01T10:39:19.062Z,18.54
2022-10-01T10:40:15.108Z,18.44
2022-10-01T10:41:15.065Z,18.46
2022-10-01T10:42:13.063Z,18.49
2022-10-01T10:43:18.068Z,18.50
2022-10-01T10:44:16.065Z,18.54
2022-10-01T10:45:16.059Z,18.64
2022-10-01T10:46:12.113Z,18.59
2022-10-01T10:47:12.064Z,18.58
2022-10-01T10:48:15.065Z,18.43
2022-10-01T10:49:20.059Z,18.42
2022-10-01T10:50:19.061Z,18.49
2022-10-01T10:51:11.064Z,18.62
2022-10-01T10:52:18.060Z,18.68
2022-10-01T10:53:19.063Z,18.85
2022-10-01T10:54:18.064Z,18.89
2022-10-01T10:55:22.072Z,18.89
2022-10-01T10:56:19.063Z,18.86
2022-10-01T10:57:19.062Z,18.85
2022-10-01T10:58:16.060Z,18.90
2022-10-01T10:59:11.084Z,18.88
2022-10-01T11:00:16.073Z,18.81
2022-10-01T11:01:13.101Z,18.90
2022-10-01T11:02:16.139Z,18.90
2022-10-01T11:03:15.066Z,18.90
2022-10-01T11:04:19.062Z,19.03
2022-10-01T11:05:22.062Z,18.86
2022-10-01T11:06:14.060Z,18.78
2022-10-01T11:07:11.067Z,18.92
2022-10-01T11:08:19.066Z,19.00
2022-10-01T11:09:12.064Z,19.05
2022-10-01T11:10:22.069Z,18.90
2022-10-01T11:11:19.073Z,18.98
2022-10-01T11:12:25.066Z,19.07
2022-10-01T11:13:22.068Z,19.09
2022-10-01T11:14:23.897Z,19.13
2022-10-01T11:15:25.063Z,19.15
2022-10-01T11:16:19.146Z,19.10
2022-10-01T11:17:22.066Z,18.83
2022-10-01T11:18:21.075Z,18.93
2022-10-01T11:19:19.068Z,19.03
2022-10-01T11:20:22.068Z,19.06
2022-10-01T11:21:19.055Z,19.12
2022-10-01T11:22:19.055Z,19.07
2022-10-01T11:23:22.060Z,19.03
2022-10-01T11:24:19.069Z,19.02
2022-10-01T11:25:19.060Z,18.99
2022-10-01T11:26:19.062Z,19.10
2022-10-01T11:27:19.055Z,19.15
2022-10-01T11:28:22.137Z,19.12
2022-10-01T11:29:19.070Z,19.07
2022-10-01T11:30:18.064Z,18.98
2022-10-01T11:31:19.106Z,19.05
2022-10-01T11:32:19.060Z,19.05
2022-10-01T11:33:22.062Z,19.04
2022-10-01T11:34:19.066Z,19.15
2022-10-01T11:35:19.073Z,19.17
2022-10-01T11:36:20.061Z,19.03
2022-10-01T11:37:19.059Z,18.95
2022-10-01T11:38:19.064Z,18.90
2022-10-01T11:39:18.064Z,18.90
2022-10-01T11:40:19.063Z,18.85
2022-10-01T11:41:19.065Z,18.87
2022-10-01T11:42:21.061Z,18.77
2022-10-01T11:43:22.065Z,18.83
2022-10-01T11:44:19.062Z,18.92
2022-10-01T11:45:19.070Z,18.94
2022-10-01T11:46:13.084Z,19.01
2022-10-01T11:47:16.062Z,18.96
2022-10-01T11:48:17.065Z,18.94
2022-10-01T11:49:22.069Z,18.89
2022-10-01T11:50:19.063Z,18.73
2022-10-01T11:51:16.065Z,18.73
2022-10-01T11:52:22.059Z,18.67
2022-10-01T11:53:21.063Z,18.62
2022-10-01T11:54:16.067Z,18.50
2022-10-01T11:55:23.065Z,18.44
2022-10-01T11:56:25.062Z,18.44
2022-10-01T11:57:16.065Z,18.51
2022-10-01T11:58:20.067Z,18.50
2022-10-01T11:59:19.064Z,18.59
2022-10-01T12:00:11.153Z,18.64
2022-10-01T12:01:17.063Z,18.67
2022-10-01T12:02:19.163Z,18.82
2022-10-01T12:03:18.065Z,18.90
2022-10-01T12:04:19.072Z,19.02
2022-10-01T12:05:16.124Z,19.05
2022-10-01T12:06:13.065Z,19.18
2022-10-01T12:07:19.067Z,19.29
2022-10-01T12:08:20.077Z,19.36
2022-10-01T12:09:19.075Z,19.37
2022-10-01T12:10:19.066Z,19.43
2022-10-01T12:11:23.065Z,19.57
2022-10-01T12:12:19.065Z,19.59
2022-10-01T12:13:19.062Z,19.61
2022-10-01T12:14:18.066Z,19.59
2022-10-01T12:15:18.075Z,19.54
2022-10-01T12:16:19.108Z,19.43
2022-10-01T12:17:19.066Z,19.46
2022-10-01T12:18:20.065Z,19.47
2022-10-01T12:19:20.093Z,19.36
2022-10-01T12:20:19.076Z,19.27
2022-10-01T12:21:19.061Z,19.24
2022-10-01T12:22:16.070Z,19.26
2022-10-01T12:23:16.058Z,19.18
2022-10-01T12:24:18.073Z,19.16
2022-10-01T12:25:14.058Z,19.06
2022-10-01T12:26:19.055Z,18.95
2022-10-01T12:27:19.059Z,18.90
2022-10-01T12:28:18.172Z,18.69
2022-10-01T12:29:19.059Z,18.68
2022-10-01T12:30:16.059Z,18.64
2022-10-01T12:31:16.106Z,18.65
2022-10-01T12:32:22.067Z,18.61
2022-10-01T12:33:19.063Z,18.57
2022-10-01T12:34:19.057Z,18.55
2022-10-01T12:35:22.056Z,18.53
2022-10-01T12:36:19.068Z,18.41
2022-10-01T12:37:25.068Z,18.39
2022-10-01T12:38:25.068Z,18.35
2022-10-01T12:39:22.062Z,18.34
2022-10-01T12:40:19.066Z,18.23
2022-10-01T12:41:22.059Z,18.19
2022-10-01T12:42:19.067Z,18.14
2022-10-01T12:43:19.064Z,18.06
2022-10-01T12:44:19.088Z,18.03
2022-10-01T12:45:19.066Z,18.04
2022-10-01T12:46:19.109Z,18.16
2022-10-01T12:47:19.064Z,18.18
2022-10-01T12:48:19.064Z,18.18
2022-10-01T12:49:19.071Z,18.14
2022-10-01T12:50:19.068Z,18.16
2022-10-01T12:51:19.062Z,18.19
2022-10-01T12:52:19.057Z,18.13